createdAt,value
2023-05-01T00:01:43.817Z,91.80
2023-05-01T00:04:11.506Z,91.80
2023-05-01T00:06:40.043Z,92.10
2023-05-01T00:09:07.200Z,92.80
2023-05-01T00:11:37.288Z,92.40
2023-05-01T00:14:04.429Z,92.20
2023-05-01T00:16:31.633Z,92.70
2023-05-01T00:19:00.145Z,93.10
2023-05-01T00:21:28.916Z,93.60
2023-05-01T00:23:55.887Z,93.30
2023-05-01T00:26:23.065Z,93.60
2023-05-01T00:28:50.688Z,93.30
2023-05-01T00:31:18.311Z,93.50
2023-05-01T00:33:45.306Z,93.40
2023-05-01T00:36:12.232Z,94.00
2023-05-01T00:38:39.329Z,93.30
2023-05-01T00:41:06.682Z,93.80
2023-05-01T00:43:33.748Z,93.90
2023-05-01T00:46:00.722Z,94.20
2023-05-01T00:48:27.699Z,93.90
2023-05-01T00:50:55.842Z,94.50
2023-05-01T00:53:26.400Z,94.30
2023-05-01T00:55:57.851Z,94.70
2023-05-01T00:58:24.717Z,94.70
2023-05-01T01:00:53.030Z,94.60
2023-05-01T01:03:20.168Z,95.40
2023-05-01T01:05:53.501Z,95.70
2023-05-01T01:08:26.829Z,95.80
2023-05-01T01:11:08.611Z,96.00
2023-05-01T01:14:00.194Z,96.80
2023-05-01T01:16:33.916Z,96.90
2023-05-01T01:20:07.017Z,96.70
2023-05-01T01:22:39.740Z,97.00
2023-05-01T01:25:44.513Z,96.70
2023-05-01T01:28:52.029Z,97.10
2023-05-01T01:31:49.588Z,96.80
2023-05-01T01:34:25.627Z,96.50
2023-05-01T01:36:52.720Z,97.10
2023-05-01T01:39:29.214Z,97.50
2023-05-01T01:41:59.448Z,97.70
2023-05-01T01:44:37.332Z,97.40
2023-05-01T01:47:08.308Z,97.90
2023-05-01T01:49:38.455Z,98.00
2023-05-01T01:52:08.128Z,98.60
2023-05-01T01:54:42.382Z,98.60
2023-05-01T01:57:13.122Z,98.50
2023-05-01T01:59:41.855Z,99.50
2023-05-01T02:02:10.707Z,99.00
2023-05-01T02:04:41.007Z,99.00
2023-05-01T02:07:11.498Z,99.60
2023-05-01T02:09:39.433Z,99.30
2023-05-01T02:12:08.197Z,99.60
2023-05-01T02:14:37.182Z,99.70
2023-05-01T02:17:04.989Z,99.50
2023-05-01T02:19:33.555Z,99.50
2023-05-01T02:22:02.972Z,99.50
2023-05-01T02:24:32.782Z,99.70
2023-05-01T02:27:13.770Z,99.60
2023-05-01T02:29:40.815Z,99.30
2023-05-01T02:32:07.742Z,98.70
2023-05-01T02:34:36.191Z,99.20
2023-05-01T02:37:06.942Z,99.00
2023-05-01T02:39:35.041Z,99.10
2023-05-01T02:42:04.559Z,99.30
2023-05-01T02:44:41.893Z,99.10
2023-05-01T02:47:12.086Z,99.60
2023-05-01T02:49:40.973Z,99.90
2023-05-01T02:52:08.412Z,99.90
2023-05-01T02:54:36.144Z,99.90
2023-05-01T02:57:05.884Z,99.90
2023-05-01T02:59:33.907Z,99.90
2023-05-01T03:02:01.010Z,99.90
2023-05-01T03:04:29.338Z,99.90
2023-05-01T03:06:56.960Z,99.90
2023-05-01T03:09:23.959Z,99.90
2023-05-01T03:11:50.855Z,99.90
2023-05-01T03:14:17.872Z,99.90
2023-05-01T03:16:45.246Z,99.90
2023-05-01T03:19:13.066Z,99.90
2023-05-01T03:21:41.551Z,99.90
2023-05-01T03:24:08.508Z,99.90
2023-05-01T03:26:35.724Z,99.90
2023-05-01T03:29:04.182Z,99.90
2023-05-01T03:31:31.289Z,99.90
2023-05-01T03:33:59.842Z,99.90
2023-05-01T03:36:27.960Z,99.90
2023-05-01T03:38:55.532Z,99.90
2023-05-01T03:41:54.517Z,99.90
2023-05-01T03:44:27.005Z,99.90
2023-05-01T03:46:54.639Z,99.90
2023-05-01T03:49:25.545Z,99.90
2023-05-01T03:51:53.826Z,99.90
2023-05-01T03:54:20.854Z,99.90
2023-05-01T03:57:06.459Z,99.90
2023-05-01T03:59:33.473Z,99.90
2023-05-01T04:02:00.475Z,99.90
2023-05-01T04:04:30.022Z,99.90
2023-05-01T04:06:58.444Z,99.90
2023-05-01T04:09:26.686Z,99.90
2023-05-01T04:11:53.671Z,99.90
2023-05-01T04:14:20.627Z,99.90
2023-05-01T04:16:48.256Z,99.90
2023-05-01T04:19:15.201Z,99.90
2023-05-01T04:21:45.091Z,99.90
2023-05-01T04:24:12.210Z,99.90
2023-05-01T04:26:39.325Z,99.90
2023-05-01T04:29:06.854Z,99.90
2023-05-01T04:31:35.109Z,99.90
2023-05-01T04:34:02.173Z,99.90
2023-05-01T04:36:29.701Z,99.90
2023-05-01T04:38:56.865Z,99.90
2023-05-01T04:41:23.822Z,99.90
2023-05-01T04:43:50.946Z,99.90
2023-05-01T04:46:19.284Z,99.90
2023-05-01T04:48:46.125Z,99.90
2023-05-01T04:51:13.541Z,99.90
2023-05-01T04:53:42.974Z,99.90
2023-05-01T04:56:19.657Z,99.90
2023-05-01T04:58:49.050Z,99.90
2023-05-01T05:01:20.480Z,99.90
2023-05-01T05:03:49.780Z,99.90
2023-05-01T05:06:17.417Z,99.90
2023-05-01T05:08:44.402Z,99.90
2023-05-01T05:11:11.828Z,99.90
2023-05-01T05:14:04.058Z,99.90
2023-05-01T05:16:31.138Z,99.90
2023-05-01T05:18:58.186Z,99.90
2023-05-01T05:21:27.525Z,99.90
2023-05-01T05:23:57.298Z,99.90
2023-05-01T05:26:24.918Z,99.90
2023-05-01T05:28:51.957Z,99.90
2023-05-01T05:31:19.034Z,99.90
2023-05-01T05:33:45.899Z,99.90
2023-05-01T05:36:14.744Z,99.90
2023-05-01T05:38:43.362Z,99.90
2023-05-01T05:41:14.102Z,99.90
2023-05-01T05:43:41.011Z,99.90
2023-05-01T05:46:08.846Z,99.90
2023-05-01T05:48:37.314Z,99.90
2023-05-01T05:51:04.651Z,99.90
2023-05-01T05:53:32.255Z,99.90
2023-05-01T05:55:59.364Z,99.90
2023-05-01T05:58:26.535Z,99.90
2023-05-01T06:00:55.638Z,99.90
2023-05-01T06:03:23.254Z,99.90
2023-05-01T06:05:52.592Z,99.90
2023-05-01T06:08:19.752Z,99.90
2023-05-01T06:10:48.064Z,99.90
2023-05-01T06:13:15.420Z,99.90
2023-05-01T06:15:45.779Z,99.90
2023-05-01T06:18:13.339Z,99.90
2023-05-01T06:20:40.478Z,99.90
2023-05-01T06:23:09.731Z,99.90
2023-05-01T06:26:06.330Z,99.90
2023-05-01T06:28:33.449Z,99.90
2023-05-01T06:31:03.844Z,99.90
2023-05-01T06:33:34.454Z,99.90
2023-05-01T06:36:11.124Z,99.90
2023-05-01T06:38:38.150Z,99.90
2023-05-01T06:41:05.969Z,99.90
2023-05-01T06:43:33.643Z,99.90
2023-05-01T06:46:00.737Z,99.90
2023-05-01T06:48:28.522Z,99.90
2023-05-01T06:50:56.402Z,99.90
2023-05-01T06:53:23.369Z,99.90
2023-05-01T06:55:50.425Z,99.90
2023-05-01T07:00:49.310Z,99.90
2023-05-01T07:03:16.603Z,99.90
2023-05-01T07:05:43.632Z,99.90
2023-05-01T07:08:10.575Z,99.90
2023-05-01T07:10:39.224Z,99.90
2023-05-01T07:13:07.331Z,99.90
2023-05-01T07:15:34.608Z,99.90
2023-05-01T07:18:03.214Z,99.90
2023-05-01T07:20:30.559Z,99.90
2023-05-01T07:22:57.508Z,99.90
2023-05-01T07:25:25.673Z,99.90
2023-05-01T07:27:53.140Z,99.90
2023-05-01T07:30:20.462Z,99.90
2023-05-01T07:32:47.730Z,99.90
2023-05-01T07:35:14.709Z,99.90
2023-05-01T07:37:41.635Z,99.90
2023-05-01T07:40:08.808Z,99.90
2023-05-01T07:42:36.302Z,99.90
2023-05-01T07:45:03.789Z,99.90
2023-05-01T07:47:30.978Z,99.90
2023-05-01T07:49:58.239Z,99.90
2023-05-01T07:52:25.417Z,99.90
2023-05-01T07:54:52.453Z,99.90
2023-05-01T07:57:19.544Z,99.90
2023-05-01T07:59:46.520Z,99.90
2023-05-01T08:02:14.048Z,99.90
2023-05-01T08:04:41.756Z,99.90
2023-05-01T08:07:08.968Z,99.90
2023-05-01T08:09:35.957Z,99.90
2023-05-01T08:12:04.112Z,99.90
2023-05-01T08:14:31.293Z,99.90
2023-05-01T08:16:58.319Z,99.90
2023-05-01T08:19:26.946Z,99.90
2023-05-01T08:21:54.059Z,99.90
2023-05-01T08:24:20.994Z,99.90
2023-05-01T08:26:48.884Z,99.90
2023-05-01T08:29:15.922Z,99.90
2023-05-01T08:31:43.850Z,99.90
2023-05-01T08:34:11.012Z,99.90
2023-05-01T08:36:38.368Z,99.90
2023-05-01T08:39:05.349Z,99.90
2023-05-01T08:41:58.443Z,99.90
2023-05-01T08:44:28.900Z,99.90
2023-05-01T08:47:15.643Z,99.90
2023-05-01T08:49:43.974Z,99.90
2023-05-01T08:52:15.338Z,99.90
2023-05-01T08:54:47.563Z,99.90
2023-05-01T08:57:15.557Z,99.90
2023-05-01T08:59:43.773Z,99.90
2023-05-01T09:02:10.904Z,99.90
2023-05-01T09:04:40.199Z,99.90
2023-05-01T09:07:07.999Z,99.90
2023-05-01T09:09:35.177Z,99.90
2023-05-01T09:12:22.250Z,99.90
2023-05-01T09:14:53.024Z,99.90
2023-05-01T09:17:21.775Z,99.90
2023-05-01T09:19:52.450Z,99.90
2023-05-01T09:22:20.516Z,99.90
2023-05-01T09:24:52.898Z,99.90
2023-05-01T09:27:19.977Z,99.90
2023-05-01T09:29:48.163Z,99.90
2023-05-01T09:32:21.821Z,99.90
2023-05-01T09:34:50.307Z,99.90
2023-05-01T09:37:34.026Z,99.90
2023-05-01T09:40:12.022Z,99.90
2023-05-01T09:42:40.763Z,99.90
2023-05-01T09:45:15.610Z,99.50
2023-05-01T09:47:44.046Z,97.00
2023-05-01T09:50:32.497Z,96.90
2023-05-01T09:53:02.150Z,96.40
2023-05-01T09:55:29.105Z,98.00
2023-05-01T09:57:56.056Z,96.40
2023-05-01T10:00:22.997Z,96.50
2023-05-01T10:02:50.752Z,95.70
2023-05-01T10:05:19.019Z,96.20
2023-05-01T10:08:00.401Z,95.50
2023-05-01T10:10:27.711Z,94.80
2023-05-01T10:12:54.984Z,97.30
2023-05-01T10:15:25.612Z,95.20
2023-05-01T10:17:54.409Z,96.20
2023-05-01T10:20:22.165Z,96.10
2023-05-01T10:22:49.797Z,96.50
2023-05-01T10:25:17.718Z,95.30
2023-05-01T10:27:44.849Z,94.30
2023-05-01T10:30:12.881Z,94.10
2023-05-01T10:32:42.210Z,93.40
2023-05-01T10:35:14.039Z,91.50
2023-05-01T10:37:49.023Z,91.70
2023-05-01T10:40:51.860Z,91.80
2023-05-01T10:43:28.805Z,90.80
2023-05-01T10:46:08.463Z,91.50
2023-05-01T10:48:39.849Z,91.70
2023-05-01T10:51:23.820Z,90.40
2023-05-01T10:54:14.131Z,90.20
2023-05-01T10:56:43.444Z,89.40
2023-05-01T10:59:11.672Z,87.80
2023-05-01T11:01:51.974Z,89.00
2023-05-01T11:04:26.189Z,87.80
2023-05-01T11:07:11.615Z,83.80
2023-05-01T11:09:49.323Z,87.10
2023-05-01T11:12:45.932Z,89.20
2023-05-01T11:15:45.447Z,90.50
2023-05-01T11:18:46.809Z,85.70
2023-05-01T11:21:17.484Z,83.20
2023-05-01T11:23:47.609Z,82.90
2023-05-01T11:26:14.702Z,84.30
2023-05-01T11:28:45.427Z,81.60
2023-05-01T11:31:18.295Z,79.80
2023-05-01T11:33:51.725Z,77.40
2023-05-01T11:36:20.149Z,77.00
2023-05-01T11:38:53.295Z,71.90
2023-05-01T11:41:23.957Z,74.10
2023-05-01T11:43:54.058Z,75.60
2023-05-01T11:46:28.056Z,73.80
2023-05-01T11:48:59.186Z,73.50
2023-05-01T11:51:28.293Z,69.30
2023-05-01T11:54:04.890Z,69.80
2023-05-01T11:56:33.454Z,71.20
2023-05-01T11:59:09.397Z,74.20
2023-05-01T12:01:39.044Z,71.60
2023-05-01T12:04:10.064Z,72.70
2023-05-01T12:06:47.139Z,70.60
2023-05-01T12:09:22.482Z,67.90
2023-05-01T12:11:54.093Z,69.10
2023-05-01T12:14:22.371Z,70.60
2023-05-01T12:16:49.746Z,69.10
2023-05-01T12:19:21.111Z,62.50
2023-05-01T12:21:50.997Z,63.80
2023-05-01T12:24:19.228Z,66.20
2023-05-01T12:26:47.031Z,67.10
2023-05-01T12:29:16.931Z,65.00
2023-05-01T12:31:49.497Z,67.10
2023-05-01T12:34:16.822Z,69.40
2023-05-01T12:36:54.169Z,69.70
2023-05-01T12:39:42.717Z,70.60
2023-05-01T12:42:15.660Z,71.30
2023-05-01T12:44:44.174Z,72.20
2023-05-01T12:47:16.158Z,70.50
2023-05-01T12:49:43.227Z,71.40
2023-05-01T12:52:27.441Z,70.10
2023-05-01T12:55:05.568Z,74.40
2023-05-01T12:57:53.914Z,73.40
2023-05-01T13:00:21.277Z,76.80
2023-05-01T13:02:48.914Z,77.40
2023-05-01T13:05:16.349Z,80.40
2023-05-01T13:07:49.012Z,81.20
2023-05-01T13:10:30.763Z,81.40
2023-05-01T13:13:01.298Z,82.60
2023-05-01T13:15:38.247Z,82.50
2023-05-01T13:18:05.810Z,85.30
2023-05-01T13:20:38.967Z,88.30
2023-05-01T13:23:41.000Z,88.30
2023-05-01T13:26:30.960Z,90.20
2023-05-01T13:29:05.868Z,90.90
2023-05-01T13:31:44.593Z,90.70
2023-05-01T13:34:20.426Z,90.10
2023-05-01T13:36:47.428Z,91.30
2023-05-01T13:39:21.364Z,90.10
2023-05-01T13:41:49.592Z,90.00
2023-05-01T13:44:18.277Z,90.70
2023-05-01T13:46:46.721Z,90.30
2023-05-01T13:49:14.789Z,90.50
2023-05-01T13:51:43.993Z,90.70
2023-05-01T13:54:11.402Z,91.20
2023-05-01T13:56:40.286Z,91.40
2023-05-01T13:59:09.243Z,92.70
2023-05-01T14:01:43.034Z,93.30
2023-05-01T14:04:13.457Z,93.40
2023-05-01T14:06:44.254Z,93.80
2023-05-01T14:09:11.345Z,93.90
2023-05-01T14:11:46.904Z,94.10
2023-05-01T14:14:18.472Z,94.10
2023-05-01T14:16:52.497Z,91.50
2023-05-01T14:19:19.421Z,91.10
2023-05-01T14:21:46.987Z,91.30
2023-05-01T14:24:16.233Z,91.10
2023-05-01T14:26:44.368Z,90.30
2023-05-01T14:29:21.957Z,89.90
2023-05-01T14:31:49.059Z,91.80
2023-05-01T14:34:18.216Z,89.90
2023-05-01T14:36:45.275Z,90.90
2023-05-01T14:39:12.633Z,92.10
2023-05-01T14:41:43.275Z,91.20
2023-05-01T14:44:16.170Z,91.70
2023-05-01T14:46:51.359Z,91.30
2023-05-01T14:49:24.463Z,91.80
2023-05-01T14:51:52.656Z,91.70
2023-05-01T14:54:20.837Z,92.10
2023-05-01T14:56:49.063Z,92.20
2023-05-01T14:59:17.086Z,92.20
2023-05-01T15:01:44.303Z,92.80
2023-05-01T15:04:14.929Z,92.80
2023-05-01T15:06:42.175Z,92.80
2023-05-01T15:09:09.820Z,93.60
2023-05-01T15:11:36.836Z,94.30
2023-05-01T15:14:04.123Z,94.10
2023-05-01T15:16:31.657Z,93.80
2023-05-01T15:18:58.778Z,93.60
2023-05-01T15:21:25.972Z,93.70
2023-05-01T15:23:53.070Z,93.00
2023-05-01T15:26:20.612Z,93.20
2023-05-01T15:28:47.511Z,92.40
2023-05-01T15:31:14.461Z,89.00
2023-05-01T15:33:41.582Z,88.10
2023-05-01T15:36:08.590Z,90.80
2023-05-01T15:38:35.609Z,91.30
2023-05-01T15:41:02.610Z,89.10
2023-05-01T15:43:32.076Z,86.70
2023-05-01T15:46:13.276Z,88.30
2023-05-01T15:48:40.599Z,91.20
2023-05-01T15:51:07.809Z,91.80
2023-05-01T15:53:34.776Z,90.90
2023-05-01T15:56:01.690Z,91.70
2023-05-01T15:58:30.665Z,93.30
2023-05-01T16:00:57.749Z,90.10
2023-05-01T16:03:24.880Z,91.00
2023-05-01T16:05:52.659Z,91.90
2023-05-01T16:08:19.657Z,91.60
2023-05-01T16:10:46.855Z,91.40
2023-05-01T16:13:14.635Z,90.80
2023-05-01T16:15:41.623Z,90.90
2023-05-01T16:18:08.758Z,90.00
2023-05-01T16:20:43.185Z,88.10
2023-05-01T16:23:11.223Z,90.60
2023-05-01T16:25:42.938Z,90.10
2023-05-01T16:28:10.048Z,90.70
2023-05-01T16:30:44.096Z,90.70
2023-05-01T16:33:19.027Z,90.70
2023-05-01T16:35:49.902Z,91.10
2023-05-01T16:38:18.150Z,91.30
2023-05-01T16:40:46.847Z,89.20
2023-05-01T16:43:13.860Z,80.70
2023-05-01T16:45:40.793Z,86.20
2023-05-01T16:48:08.034Z,86.60
2023-05-01T16:50:40.158Z,82.90
2023-05-01T16:53:07.106Z,82.70
2023-05-01T16:55:34.224Z,82.60
2023-05-01T16:58:01.203Z,81.70
2023-05-01T17:00:29.280Z,83.50
2023-05-01T17:02:58.989Z,84.40
2023-05-01T17:05:26.189Z,86.70
2023-05-01T17:07:53.118Z,88.60
2023-05-01T17:10:20.359Z,89.30
2023-05-01T17:12:48.020Z,90.30
2023-05-01T17:15:15.495Z,90.90
2023-05-01T17:17:42.648Z,91.10
2023-05-01T17:20:10.877Z,92.00
2023-05-01T17:22:37.812Z,91.90
2023-05-01T17:25:05.296Z,93.00
2023-05-01T17:27:33.466Z,91.50
2023-05-01T17:30:00.691Z,90.60
2023-05-01T17:32:36.360Z,86.50
2023-05-01T17:35:05.751Z,87.10
2023-05-01T17:37:33.081Z,88.60
2023-05-01T17:40:00.386Z,88.20
2023-05-01T17:42:27.522Z,88.90
2023-05-01T17:44:54.575Z,83.70
2023-05-01T17:47:22.194Z,84.20
2023-05-01T17:49:52.260Z,85.10
2023-05-01T17:52:19.128Z,82.50
2023-05-01T17:54:46.176Z,83.60
2023-05-01T17:57:13.084Z,84.60
2023-05-01T17:59:40.153Z,85.20
2023-05-01T18:02:07.245Z,84.70
2023-05-01T18:04:36.085Z,83.70
2023-05-01T18:07:03.685Z,82.80
2023-05-01T18:09:30.587Z,81.10
2023-05-01T18:11:57.634Z,81.30
2023-05-01T18:14:25.079Z,81.90
2023-05-01T18:16:52.913Z,84.50
2023-05-01T18:19:19.893Z,83.10
2023-05-01T18:21:46.748Z,82.70
2023-05-01T18:24:14.003Z,85.90
2023-05-01T18:26:40.909Z,86.10
2023-05-01T18:29:08.025Z,87.10
2023-05-01T18:31:37.976Z,87.50
2023-05-01T18:34:06.618Z,87.90
2023-05-01T18:36:36.341Z,87.40
2023-05-01T18:39:04.708Z,87.20
2023-05-01T18:41:31.757Z,88.30
2023-05-01T18:44:01.443Z,90.00
2023-05-01T18:46:28.762Z,90.30
2023-05-01T18:48:57.663Z,90.10
2023-05-01T18:51:26.125Z,90.60
2023-05-01T18:53:53.049Z,91.30
2023-05-01T18:56:20.109Z,91.70
2023-05-01T18:58:49.797Z,92.00
2023-05-01T19:01:17.019Z,92.40
2023-05-01T19:03:45.624Z,93.00
2023-05-01T19:06:13.755Z,92.30
2023-05-01T19:08:41.356Z,92.80
2023-05-01T19:11:08.684Z,93.30
2023-05-01T19:13:36.880Z,93.50
2023-05-01T19:16:09.200Z,93.80
2023-05-01T19:18:38.241Z,94.20
2023-05-01T19:21:05.680Z,94.70
2023-05-01T19:23:35.500Z,95.30
2023-05-01T19:26:03.414Z,95.70
2023-05-01T19:28:31.475Z,96.00
2023-05-01T19:30:58.848Z,96.60
2023-05-01T19:33:25.919Z,97.20
2023-05-01T19:35:53.912Z,97.20
2023-05-01T19:38:22.827Z,97.90
2023-05-01T19:40:49.789Z,98.00
2023-05-01T19:43:17.802Z,98.10
2023-05-01T19:45:47.492Z,98.70
2023-05-01T19:48:16.754Z,98.80
2023-05-01T19:50:50.623Z,99.50
2023-05-01T19:53:18.975Z,99.40
2023-05-01T19:55:47.886Z,99.10
2023-05-01T19:58:15.751Z,99.30
2023-05-01T20:00:43.320Z,99.80
2023-05-01T20:03:11.053Z,99.90
2023-05-01T20:05:41.019Z,99.90
2023-05-01T20:08:08.235Z,99.90
2023-05-01T20:10:36.794Z,99.90
2023-05-01T20:13:11.011Z,99.90
2023-05-01T20:15:39.292Z,99.90
2023-05-01T20:18:06.844Z,99.90
2023-05-01T20:20:35.083Z,99.90
2023-05-01T20:23:16.725Z,99.90
2023-05-01T20:25:48.517Z,99.90
2023-05-01T20:28:16.882Z,99.90
2023-05-01T20:30:47.181Z,99.90
2023-05-01T20:33:15.820Z,99.90
2023-05-01T20:35:42.948Z,99.90
2023-05-01T20:38:10.029Z,99.90
2023-05-01T20:40:40.373Z,99.90
2023-05-01T20:43:09.231Z,99.90
2023-05-01T20:45:36.397Z,99.90
